Time;durP1;ratioP1;P1;durP2;ratioP2;P2;SDS_P1;SDS_P2;PMS_P1;PMS_P2;Temp;Humidity;BMP_temperature;BMP_pressure;BME280_temperature;BME280_humidity;BME280_pressure;Samples;Min_cycle;Max_cycle;Signal;HPM_P1;HPM_P2
2022/10/21 00:02:15;;;;;;;19.75;12.70;;;;;;;24.25;50.65;100814.00;5089670;28;20062;-71
2022/10/21 00:04:40;;;;;;;20.35;11.25;;;;;;;24.67;49.47;100803.16;5089922;28;20043;-71
2022/10/21 00:07:06;;;;;;;24.88;13.00;;;;;;;24.90;48.89;100804.19;5088799;28;20418;-71
2022/10/21 00:09:31;;;;;;;18.13;12.27;;;;;;;24.93;49.17;100803.13;5090874;28;20028;-71
2022/10/21 00:11:57;;;;;;;19.17;11.20;;;;;;;25.15;48.46;100787.25;5089399;28;20055;-72
2022/10/21 00:14:22;;;;;;;19.30;11.40;;;;;;;23.77;51.73;100794.91;5088962;28;20028;-71
2022/10/21 00:16:47;;;;;;;22.55;12.82;;;;;;;23.85;51.52;100790.81;5091427;28;20019;-71
2022/10/21 00:19:13;;;;;;;28.73;12.57;;;;;;;24.86;49.26;100798.19;5087787;28;20081;-71
2022/10/21 00:21:39;;;;;;;22.73;12.63;;;;;;;24.40;49.67;100790.72;5077380;28;20024;-70
2022/10/21 00:24:05;;;;;;;19.27;12.35;;;;;;;24.44;48.62;100781.53;5088472;28;20504;-71
2022/10/21 00:26:30;;;;;;;23.92;12.27;;;;;;;24.97;47.81;100772.53;5092006;28;20027;-71
2022/10/21 00:28:56;;;;;;;18.95;12.52;;;;;;;25.24;47.38;100767.84;5088984;28;20028;-71
2022/10/21 00:31:22;;;;;;;28.70;12.45;;;;;;;25.14;47.29;100764.16;5090255;28;20025;-71
2022/10/21 00:33:47;;;;;;;18.08;12.00;;;;;;;25.21;46.80;100770.75;5088167;28;20039;-71
2022/10/21 00:36:14;;;;;;;21.50;12.93;;;;;;;25.05;48.01;100770.16;5088961;28;20034;-71
2022/10/21 00:38:40;;;;;;;18.75;11.93;;;;;;;25.04;47.54;100773.81;5089101;28;20034;-71
2022/10/21 00:41:06;;;;;;;19.92;12.20;;;;;;;24.89;47.79;100771.28;5089435;28;20450;-71
2022/10/21 00:43:31;;;;;;;19.05;11.93;;;;;;;25.18;47.65;100765.66;5089950;28;20107;-72
2022/10/21 00:46:05;;;;;;;21.27;12.93;;;;;;;25.13;46.87;100762.44;5093244;28;20024;-71
2022/10/21 00:48:34;;;;;;;16.63;11.70;;;;;;;25.01;47.33;100758.84;5091384;28;20123;-72
2022/10/21 00:51:05;;;;;;;20.73;12.15;;;;;;;25.17;46.70;100758.59;5093158;28;20125;-71
2022/10/21 00:53:34;;;;;;;20.00;11.68;;;;;;;25.02;46.84;100757.03;5092518;28;20484;-72
2022/10/21 00:56:06;;;;;;;22.02;11.52;;;;;;;25.04;46.91;100749.75;5092893;28;20024;-71
2022/10/21 00:58:33;;;;;;;28.08;13.25;;;;;;;24.71;47.90;100736.00;5093411;28;20457;-71
2022/10/21 01:01:02;;;;;;;18.15;11.25;;;;;;;24.78;47.78;100751.63;5092120;28;20111;-71
2022/10/21 01:03:29;;;;;;;21.08;12.27;;;;;;;24.65;47.80;100740.97;5092215;28;20502;-72
2022/10/21 01:05:57;;;;;;;22.48;12.73;;;;;;;24.69;47.73;100737.09;5092766;28;20446;-71
2022/10/21 01:08:23;;;;;;;25.45;11.75;;;;;;;24.84;47.30;100740.47;5091778;28;20111;-71
2022/10/21 01:10:49;;;;;;;19.02;12.18;;;;;;;24.82;47.33;100737.91;5095055;28;20111;-71
2022/10/21 01:13:48;;;;;;;21.73;12.13;;;;;;;25.08;46.49;100735.19;5092854;28;20553;-71
2022/10/21 01:16:13;;;;;;;18.95;12.00;;;;;;;24.79;47.06;100738.13;5090935;28;20031;-71
2022/10/21 01:19:17;;;;;;;18.98;12.68;;;;;;;24.76;47.35;100733.03;5092362;28;20471;-71
2022/10/21 01:21:54;;;;;;;23.88;12.73;;;;;;;25.09;46.06;100739.56;5070205;28;20024;-71
2022/10/21 01:24:42;;;;;;;15.93;11.73;;;;;;;25.05;46.31;100730.06;5120820;27;20515;-71
2022/10/21 01:27:20;;;;;;;21.27;11.75;;;;;;;24.93;46.62;100733.63;5094715;28;20032;-71
2022/10/21 01:30:07;;;;;;;15.90;11.20;;;;;;;24.76;46.45;100722.34;5091980;28;20059;-71
2022/10/21 01:33:07;;;;;;;20.88;11.63;;;;;;;25.03;45.36;100718.63;5091409;28;20031;-71
2022/10/21 01:35:44;;;;;;;18.83;12.07;;;;;;;24.56;46.44;100716.56;5094071;28;20102;-72
2022/10/21 01:39:00;;;;;;;22.13;13.25;;;;;;;24.55;47.00;100725.53;5092632;28;20125;-71
2022/10/21 01:41:41;;;;;;;25.73;12.57;;;;;;;24.03;47.65;100724.69;5076539;28;20035;-71
2022/10/21 01:44:23;;;;;;;21.45;11.75;;;;;;;24.42;47.18;100716.66;5091254;28;20395;-71
2022/10/21 01:46:51;;;;;;;17.80;10.15;;;;;;;24.64;46.69;100702.69;5092375;28;20031;-71
2022/10/21 01:49:23;;;;;;;23.85;11.32;;;;;;;24.44;47.10;100716.56;5092647;28;20028;-71
2022/10/21 01:51:52;;;;;;;18.08;11.73;;;;;;;24.37;47.09;100716.13;5091541;28;20158;-71
2022/10/21 01:54:27;;;;;;;17.20;11.30;;;;;;;24.60;46.46;100702.97;5092183;28;20032;-71
2022/10/21 01:56:54;;;;;;;19.08;12.70;;;;;;;24.44;47.00;100716.56;5090172;28;20048;-71
2022/10/21 01:59:22;;;;;;;21.27;12.30;;;;;;;24.44;46.82;100717.44;5089896;28;20399;-71
2022/10/21 02:01:49;;;;;;;18.98;12.48;;;;;;;24.35;46.68;100712.72;5094237;28;20399;-71
2022/10/21 02:04:17;;;;;;;18.30;11.13;;;;;;;24.48;46.39;100702.03;5090323;28;20039;-71
2022/10/21 02:06:42;;;;;;;17.80;11.02;;;;;;;24.22;46.87;100694.91;5093984;28;20023;-71
2022/10/21 02:09:08;;;;;;;17.92;11.23;;;;;;;24.29;46.33;100692.66;5092133;28;20018;-71
2022/10/21 02:11:36;;;;;;;16.38;11.27;;;;;;;24.31;46.22;100677.38;5091471;28;20041;-71
2022/10/21 02:14:22;;;;;;;16.15;10.88;;;;;;;24.36;46.62;100682.41;5093158;28;20032;-71
2022/10/21 02:16:49;;;;;;;19.55;11.43;;;;;;;24.22;46.46;100678.88;5092469;28;20161;-72
2022/10/21 02:19:16;;;;;;;17.88;11.25;;;;;;;24.26;46.73;100681.31;5090138;28;20028;-71
2022/10/21 02:21:44;;;;;;;17.63;11.60;;;;;;;24.15;46.73;100674.06;5091493;28;20020;-71
2022/10/21 02:24:24;;;;;;;16.20;11.38;;;;;;;23.99;46.62;100684.97;5093603;28;20173;-72
2022/10/21 02:26:50;;;;;;;19.83;11.07;;;;;;;24.07;46.28;100685.28;5096023;28;20074;-71
2022/10/21 02:29:21;;;;;;;16.33;10.88;;;;;;;24.20;45.83;100675.44;5089104;28;20484;-71
2022/10/21 02:32:17;;;;;;;18.63;10.90;;;;;;;23.99;46.32;100684.97;5090506;28;20024;-71
2022/10/21 02:34:50;;;;;;;12.82;9.88;;;;;;;24.07;46.11;100676.41;5091942;28;20040;-71
2022/10/21 02:37:29;;;;;;;16.38;10.93;;;;;;;24.06;45.69;100672.91;5090886;28;20031;-71
2022/10/21 02:40:07;;;;;;;18.67;10.90;;;;;;;24.24;45.74;100672.59;5090788;28;20028;-71
2022/10/21 02:42:37;;;;;;;17.30;10.52;;;;;;;24.13;46.05;100671.50;5092035;28;20047;-70
2022/10/21 02:45:03;;;;;;;15.88;10.30;;;;;;;23.97;46.00;100676.19;5091390;28;20036;-71
2022/10/21 02:47:28;;;;;;;17.30;10.68;;;;;;;24.11;45.66;100673.44;5071562;28;20111;-71
2022/10/21 02:49:54;;;;;;;16.58;9.93;;;;;;;23.99;46.19;100666.28;5088439;28;20111;-71
2022/10/21 02:52:20;;;;;;;15.07;9.48;;;;;;;23.96;46.17;100663.81;5090530;28;20035;-71
2022/10/21 02:54:45;;;;;;;15.02;9.60;;;;;;;23.83;46.36;100663.78;5090175;28;20169;-71
2022/10/21 02:57:11;;;;;;;17.80;10.40;;;;;;;23.81;46.34;100663.88;5090226;28;20131;-71
2022/10/21 02:59:36;;;;;;;14.40;9.02;;;;;;;23.90;46.01;100664.25;5092277;28;20028;-71
2022/10/21 03:02:02;;;;;;;10.77;8.45;;;;;;;24.07;45.79;100661.25;5089651;28;20096;-71
2022/10/21 03:04:27;;;;;;;16.77;9.88;;;;;;;23.80;46.95;100659.50;5092734;28;20059;-71
2022/10/21 03:06:52;;;;;;;13.68;9.20;;;;;;;23.97;46.23;100666.34;5089715;28;20418;-71
2022/10/21 03:09:18;;;;;;;14.68;9.57;;;;;;;23.90;46.22;100658.91;5088789;28;20036;-71
2022/10/21 03:11:43;;;;;;;13.70;9.50;;;;;;;24.02;46.30;100663.38;5090440;28;20035;-71
2022/10/21 03:14:09;;;;;;;13.10;9.85;;;;;;;23.97;46.02;100660.19;5089340;28;20479;-71
2022/10/21 03:16:34;;;;;;;17.20;9.45;;;;;;;24.07;45.83;100661.25;5091559;28;20031;-71
2022/10/21 03:18:59;;;;;;;13.35;9.27;;;;;;;24.09;45.78;100670.00;5090952;28;20046;-72
2022/10/21 03:21:25;;;;;;;16.15;9.27;;;;;;;23.78;46.29;100666.75;5088880;28;20024;-71
2022/10/21 03:23:50;;;;;;;16.15;9.57;;;;;;;24.10;44.84;100661.03;5092467;28;20052;-71
2022/10/21 03:26:15;;;;;;;14.35;9.77;;;;;;;23.96;45.90;100670.00;5090308;28;20065;-71
2022/10/21 03:28:41;;;;;;;16.83;8.73;;;;;;;24.07;45.93;100666.59;5090810;28;20372;-71
2022/10/21 03:31:06;;;;;;;15.88;8.50;;;;;;;23.99;45.80;100660.94;5090163;28;20459;-71
2022/10/21 03:33:32;;;;;;;14.70;8.57;;;;;;;24.05;45.42;100663.16;5092142;28;20502;-71
2022/10/21 03:35:57;;;;;;;11.75;8.35;;;;;;;24.14;45.49;100646.53;5090534;28;20464;-71
2022/10/21 03:38:22;;;;;;;11.35;7.90;;;;;;;23.76;45.98;100647.31;5086094;28;21345;-72
2022/10/21 03:40:49;;;;;;;10.95;8.43;;;;;;;23.92;46.19;100649.84;5090264;28;20544;-72
2022/10/21 03:43:14;;;;;;;16.40;8.63;;;;;;;23.79;45.85;100644.44;5089318;28;20566;-71
2022/10/21 03:45:40;;;;;;;16.58;9.15;;;;;;;23.39;46.96;100639.16;5089065;28;20075;-71
2022/10/21 03:48:05;;;;;;;16.25;8.57;;;;;;;23.63;47.11;100641.09;5087395;28;20049;-71
2022/10/21 03:50:31;;;;;;;16.05;8.85;;;;;;;23.48;47.61;100635.00;5088824;28;20108;-71
2022/10/21 03:52:58;;;;;;;12.50;8.50;;;;;;;23.76;46.42;100625.97;5079561;28;20028;-71
2022/10/21 03:55:24;;;;;;;14.93;9.35;;;;;;;23.87;46.33;100622.56;5080266;28;20024;-71
2022/10/21 03:57:50;;;;;;;14.98;8.77;;;;;;;23.72;46.73;100629.81;5087607;28;20036;-71
2022/10/21 04:00:16;;;;;;;11.93;8.65;;;;;;;23.59;46.57;100624.47;5089204;28;20102;-71
2022/10/21 04:02:42;;;;;;;15.07;8.07;;;;;;;23.86;45.56;100627.06;5090409;28;20132;-71
2022/10/21 04:05:09;;;;;;;10.50;7.45;;;;;;;23.37;47.22;100625.06;5089828;28;20024;-70
2022/10/21 04:07:34;;;;;;;11.75;7.60;;;;;;;23.55;46.56;100634.50;5089554;28;20028;-71
2022/10/21 04:10:00;;;;;;;13.27;7.75;;;;;;;23.67;46.44;100626.59;5089236;28;20027;-71
2022/10/21 04:12:25;;;;;;;10.65;7.40;;;;;;;23.37;47.39;100646.41;5089260;28;20112;-71
2022/10/21 04:14:50;;;;;;;10.75;7.68;;;;;;;23.49;47.07;100642.91;5090264;28;20024;-71
2022/10/21 04:17:16;;;;;;;12.63;7.40;;;;;;;23.46;47.10;100644.94;5089955;28;20043;-71
2022/10/21 04:19:41;;;;;;;10.15;7.00;;;;;;;23.49;46.76;100645.59;5094088;28;20233;-71
2022/10/21 04:22:06;;;;;;;18.60;8.05;;;;;;;23.58;46.58;100649.44;5095712;28;20035;-71
2022/10/21 04:24:32;;;;;;;10.30;7.60;;;;;;;23.53;46.64;100652.44;5096386;28;20062;-71
2022/10/21 04:26:57;;;;;;;11.82;7.57;;;;;;;23.74;46.29;100654.59;5098196;28;20028;-71
2022/10/21 04:29:22;;;;;;;13.07;7.03;;;;;;;23.70;45.98;100647.75;5096893;27;20052;-71
2022/10/21 04:31:48;;;;;;;10.50;7.13;;;;;;;23.35;46.49;100648.31;5094992;28;20395;-71
2022/10/21 04:34:13;;;;;;;14.13;6.22;;;;;;;23.67;46.13;100639.94;5096886;28;20111;-71
2022/10/21 04:36:39;;;;;;;10.15;7.03;;;;;;;23.08;47.33;100641.16;5098352;28;20449;-71
2022/10/21 04:39:04;;;;;;;11.45;7.15;;;;;;;23.38;46.85;100637.44;5095602;28;20133;-72
2022/10/21 04:41:30;;;;;;;10.15;6.60;;;;;;;22.80;48.32;100642.94;5096672;28;20042;-72
2022/10/21 04:43:55;;;;;;;10.65;6.82;;;;;;;23.20;47.31;100644.84;5094161;28;20028;-72
2022/10/21 04:46:20;;;;;;;10.65;7.15;;;;;;;22.70;49.09;100647.16;5096021;28;20034;-72
2022/10/21 04:48:46;;;;;;;11.75;7.50;;;;;;;23.18;47.85;100652.94;5095808;28;20016;-72
2022/10/21 04:51:12;;;;;;;11.27;7.47;;;;;;;22.96;48.48;100653.47;5080229;28;20031;-72
2022/10/21 04:53:37;;;;;;;11.13;6.80;;;;;;;23.49;46.63;100653.59;5095143;28;20044;-72
2022/10/21 04:56:03;;;;;;;13.05;7.40;;;;;;;23.35;47.40;100658.97;5096193;28;20027;-72
2022/10/21 04:58:28;;;;;;;12.00;6.72;;;;;;;23.54;46.43;100659.44;5097322;28;20086;-72
2022/10/21 05:00:54;;;;;;;15.27;7.43;;;;;;;23.27;47.40;100653.31;5094517;28;20115;-72
2022/10/21 05:03:19;;;;;;;10.35;7.03;;;;;;;22.96;48.63;100652.63;5095573;28;20032;-72
2022/10/21 05:05:49;;;;;;;12.63;7.65;;;;;;;22.65;48.92;100647.44;5095953;28;20498;-72
2022/10/21 05:08:14;;;;;;;13.93;7.78;;;;;;;23.06;47.54;100656.38;5097467;28;20027;-73
2022/10/21 05:10:39;;;;;;;15.32;7.38;;;;;;;22.91;47.98;100654.72;5097369;28;20028;-71
2022/10/21 05:13:05;;;;;;;16.38;8.00;;;;;;;22.70;48.93;100650.69;5095247;28;20052;-72
2022/10/21 05:15:32;;;;;;;15.00;7.28;;;;;;;22.97;48.57;100651.66;5093979;28;20544;-72
2022/10/21 05:17:57;;;;;;;15.38;6.75;;;;;;;22.83;48.79;100642.78;5094654;28;20056;-72
2022/10/21 05:20:26;;;;;;;14.25;7.25;;;;;;;22.29;51.00;100642.63;5097377;28;20530;-72
2022/10/21 05:22:52;;;;;;;12.88;7.10;;;;;;;22.81;49.33;100644.66;5091861;28;20016;-73
2022/10/21 05:25:18;;;;;;;12.52;7.35;;;;;;;22.96;49.03;100644.63;5113426;27;20077;-72
2022/10/21 05:27:44;;;;;;;15.40;7.63;;;;;;;22.98;48.45;100638.22;5099076;28;20085;-72
2022/10/21 05:30:10;;;;;;;10.43;6.43;;;;;;;22.79;49.52;100635.94;5095008;28;20479;-72
2022/10/21 05:32:36;;;;;;;18.85;7.53;;;;;;;22.50;49.85;100638.66;5091816;28;20077;-72
2022/10/21 05:35:02;;;;;;;19.25;7.35;;;;;;;23.21;48.04;100634.06;5093050;28;20035;-73
2022/10/21 05:37:27;;;;;;;10.85;7.05;;;;;;;22.91;49.17;100636.06;5091143;28;20081;-72
2022/10/21 05:39:52;;;;;;;13.18;6.50;;;;;;;22.57;49.35;100624.91;5109296;27;20034;-72
2022/10/21 05:42:18;;;;;;;16.33;6.72;;;;;;;22.93;49.28;100642.16;5091599;28;20472;-72
2022/10/21 05:44:43;;;;;;;13.13;6.72;;;;;;;22.57;49.51;100640.91;5093523;28;20119;-72
2022/10/21 05:47:09;;;;;;;12.45;7.28;;;;;;;23.12;48.48;100626.72;5094423;28;20537;-72
2022/10/21 05:49:34;;;;;;;17.30;7.50;;;;;;;22.52;49.99;100636.72;5093134;28;20498;-72
2022/10/21 05:52:01;;;;;;;11.85;7.10;;;;;;;22.59;50.26;100636.34;5089662;28;20024;-72
2022/10/21 05:54:26;;;;;;;12.35;7.72;;;;;;;22.44;50.80;100623.03;5096042;28;20031;-72
2022/10/21 05:56:55;;;;;;;14.32;8.68;;;;;;;23.07;49.07;100618.13;5093231;28;20056;-72
2022/10/21 05:59:21;;;;;;;16.20;7.88;;;;;;;22.78;49.28;100618.22;5090239;28;20031;-72
2022/10/21 06:01:46;;;;;;;11.32;7.60;;;;;;;23.04;48.24;100615.66;5112702;27;20023;-73
2022/10/21 06:04:12;;;;;;;16.95;7.05;;;;;;;23.30;47.74;100621.97;5087271;28;20028;-72
2022/10/21 06:06:37;;;;;;;12.13;6.75;;;;;;;22.85;48.67;100624.84;5085722;28;20032;-72
2022/10/21 06:09:03;;;;;;;13.52;7.03;;;;;;;21.93;51.50;100635.97;5095878;28;20028;-72
2022/10/21 06:11:28;;;;;;;14.25;7.00;;;;;;;22.87;49.19;100625.63;5092194;28;20052;-72
2022/10/21 06:13:53;;;;;;;13.20;6.90;;;;;;;22.92;48.92;100629.81;5093841;28;20031;-72
2022/10/21 06:16:19;;;;;;;11.93;6.80;;;;;;;23.30;47.79;100635.28;5090434;28;20399;-72
2022/10/21 06:18:44;;;;;;;12.98;6.57;;;;;;;23.08;48.31;100634.97;5108662;28;20058;-72
2022/10/21 06:21:10;;;;;;;10.73;6.38;;;;;;;22.27;50.44;100644.50;5103579;27;20016;-73
2022/10/21 06:23:35;;;;;;;12.95;6.70;;;;;;;23.22;47.76;100634.94;5100397;27;20024;-72
2022/10/21 06:26:12;;;;;;;13.07;7.00;;;;;;;23.48;46.88;100637.66;5104751;27;20040;-72
2022/10/21 06:28:40;;;;;;;11.63;6.07;;;;;;;22.92;48.70;100635.13;5098368;27;20036;-72
2022/10/21 06:31:07;;;;;;;12.93;7.10;;;;;;;23.10;48.20;100628.56;5088510;28;20043;-72
2022/10/21 06:33:33;;;;;;;13.90;8.43;;;;;;;23.39;47.00;100623.16;5095322;27;20035;-72
2022/10/21 06:35:59;;;;;;;19.30;7.20;;;;;;;23.27;47.31;100618.63;5079429;28;20496;-72
2022/10/21 06:38:24;;;;;;;10.93;6.90;;;;;;;23.67;46.68;100615.94;5089042;28;20047;-72
2022/10/21 06:40:51;;;;;;;10.77;6.65;;;;;;;23.15;47.58;100625.63;5101660;28;20031;-72
2022/10/21 06:43:16;;;;;;;11.45;6.65;;;;;;;23.58;46.89;100621.91;5091194;28;20020;-72
2022/10/21 06:45:42;;;;;;;12.93;7.28;;;;;;;22.73;48.95;100622.97;5090971;28;20031;-72
2022/10/21 06:48:07;;;;;;;12.63;7.28;;;;;;;22.81;48.87;100628.69;5089336;28;20038;-72
2022/10/21 06:50:33;;;;;;;16.17;8.45;;;;;;;23.34;47.94;100630.59;5091597;28;20451;-72
2022/10/21 06:52:58;;;;;;;11.90;7.05;;;;;;;23.48;47.40;100622.53;5105272;28;20462;-72
2022/10/21 06:55:24;;;;;;;17.02;7.20;;;;;;;23.32;47.69;100621.84;5089429;28;20027;-72
2022/10/21 06:57:49;;;;;;;13.55;7.40;;;;;;;23.59;46.73;100627.16;5092111;28;20123;-72
2022/10/21 07:00:15;;;;;;;24.90;7.80;;;;;;;23.57;47.26;100636.22;5090701;28;20024;-72
2022/10/21 07:02:41;;;;;;;13.18;6.78;;;;;;;23.91;45.98;100631.25;5091207;28;20028;-72
2022/10/21 07:05:07;;;;;;;14.57;7.22;;;;;;;23.69;46.54;100622.03;5090380;28;20108;-72
2022/10/21 07:07:33;;;;;;;9.80;6.93;;;;;;;23.64;46.69;100622.31;5104020;28;20024;-72
2022/10/21 07:09:59;;;;;;;13.93;7.45;;;;;;;23.67;46.76;100626.59;5111726;28;20019;-72
2022/10/21 07:12:26;;;;;;;14.20;6.57;;;;;;;23.75;46.19;100634.94;5091056;28;20115;-72
2022/10/21 07:14:53;;;;;;;13.02;6.95;;;;;;;23.77;46.38;100649.03;5091265;28;20035;-72
2022/10/21 07:17:19;;;;;;;13.48;8.20;;;;;;;23.24;48.05;100656.19;5108553;28;20028;-72
2022/10/21 07:19:44;;;;;;;13.50;8.00;;;;;;;23.46;46.67;100651.09;5091284;28;20028;-72
2022/10/21 07:22:10;;;;;;;11.63;7.63;;;;;;;23.67;46.64;100663.94;5093442;28;20035;-72
2022/10/21 07:24:35;;;;;;;16.85;7.93;;;;;;;23.73;46.42;100674.22;5087993;28;20516;-72
2022/10/21 07:27:01;;;;;;;12.15;7.68;;;;;;;23.21;47.64;100684.72;5086466;28;20495;-72
2022/10/21 07:29:26;;;;;;;12.98;7.18;;;;;;;23.85;46.11;100697.41;5087985;28;20030;-72
2022/10/21 07:31:52;;;;;;;29.27;8.80;;;;;;;23.63;46.50;100689.13;5089914;28;20042;-72
2022/10/21 07:34:18;;;;;;;13.23;8.27;;;;;;;23.38;47.42;100690.75;5091015;28;20023;-72
2022/10/21 07:36:51;;;;;;;14.88;8.63;;;;;;;23.43;47.47;100699.31;5090353;28;20073;-72
2022/10/21 07:39:19;;;;;;;14.00;7.43;;;;;;;23.32;47.93;100693.84;5090349;28;20468;-72
2022/10/21 07:41:48;;;;;;;15.32;7.03;;;;;;;23.82;46.98;100689.63;5088504;28;20045;-72
2022/10/21 07:44:14;;;;;;;13.75;7.60;;;;;;;23.64;47.65;100685.50;5091856;28;20023;-73
2022/10/21 07:46:41;;;;;;;10.95;7.30;;;;;;;23.52;47.36;100688.06;5089742;28;20024;-72
2022/10/21 07:49:07;;;;;;;12.15;7.50;;;;;;;23.33;47.82;100692.91;5099608;27;20421;-72
2022/10/21 07:51:33;;;;;;;11.02;7.10;;;;;;;23.78;47.37;100698.78;5087082;28;20035;-72
2022/10/21 07:54:00;;;;;;;12.57;7.32;;;;;;;23.81;47.45;100697.69;5092950;28;20033;-72
2022/10/21 07:56:29;;;;;;;14.18;7.80;;;;;;;23.27;49.20;100699.47;5092393;28;20043;-72
2022/10/21 07:58:55;;;;;;;11.27;7.28;;;;;;;23.99;46.92;100701.81;5087953;28;20020;-72
2022/10/21 08:01:21;;;;;;;13.10;7.63;;;;;;;24.20;46.69;100694.13;5088762;28;20026;-72
2022/10/21 08:03:47;;;;;;;11.05;7.13;;;;;;;24.29;46.58;100697.13;5087745;28;20115;-72
2022/10/21 08:06:15;;;;;;;12.65;7.07;;;;;;;24.30;46.63;100697.00;5092045;28;20020;-72
2022/10/21 08:08:42;;;;;;;12.05;7.35;;;;;;;23.63;48.35;100683.78;5091759;28;20040;-72
2022/10/21 08:11:08;;;;;;;12.07;7.10;;;;;;;24.00;47.31;100681.31;5092061;28;20059;-73
2022/10/21 08:13:34;;;;;;;11.48;6.65;;;;;;;23.72;48.40;100685.84;5091666;28;20047;-72
2022/10/21 08:16:00;;;;;;;13.43;6.40;;;;;;;24.16;47.24;100676.63;5102585;28;20476;-72
2022/10/21 08:18:26;;;;;;;12.98;6.65;;;;;;;24.18;47.11;100680.06;5110193;28;20030;-72
2022/10/21 08:20:51;;;;;;;15.02;7.03;;;;;;;24.39;46.52;100672.34;5106647;28;20176;-72
2022/10/21 08:23:19;;;;;;;12.45;7.38;;;;;;;23.69;47.87;100678.06;5089508;28;20031;-72
2022/10/21 08:25:49;;;;;;;12.95;6.20;;;;;;;24.29;47.15;100675.75;5089174;28;20032;-72
2022/10/21 08:28:15;;;;;;;10.70;6.25;;;;;;;24.48;46.79;100676.19;5090623;28;20024;-72
2022/10/21 08:30:42;;;;;;;14.18;7.40;;;;;;;24.51;46.81;100675.97;5088855;28;20032;-72
2022/10/21 08:33:07;;;;;;;12.38;7.32;;;;;;;24.68;46.71;100681.94;5089845;28;20400;-73
2022/10/21 08:35:32;;;;;;;14.18;6.63;;;;;;;24.20;47.18;100694.13;5091393;28;20031;-72
2022/10/21 08:37:58;;;;;;;13.00;7.15;;;;;;;23.80;49.41;100710.19;5089674;28;20028;-72
2022/10/21 08:40:24;;;;;;;11.32;6.40;;;;;;;24.48;47.66;100708.25;5089533;28;20028;-72
2022/10/21 08:42:49;;;;;;;15.82;6.30;;;;;;;23.75;49.10;100714.97;5091692;28;20024;-72
2022/10/21 08:45:27;;;;;;;10.32;5.78;;;;;;;24.56;47.90;100705.88;5088265;28;20027;-72
2022/10/21 08:48:02;;;;;;;14.02;5.68;;;;;;;24.13;48.91;100716.03;5090366;28;20031;-72
2022/10/21 08:50:34;;;;;;;9.65;6.00;;;;;;;24.78;48.14;100701.69;5089216;28;20127;-72
2022/10/21 08:53:05;;;;;;;9.85;5.68;;;;;;;24.85;47.24;100684.25;5089382;28;20055;-72
2022/10/21 08:55:38;;;;;;;10.50;5.85;;;;;;;24.35;49.10;100681.53;5089591;28;20081;-72
2022/10/21 08:58:05;;;;;;;15.93;6.07;;;;;;;24.62;48.31;100683.25;5090146;28;20044;-72
2022/10/21 09:00:37;;;;;;;13.35;5.82;;;;;;;25.19;47.48;100692.44;5088493;28;20055;-72
2022/10/21 09:03:19;;;;;;;10.95;6.63;;;;;;;24.43;49.38;100697.03;5090065;28;20479;-72
2022/10/21 09:06:07;;;;;;;12.52;6.03;;;;;;;24.95;47.43;100702.28;5089245;28;20082;-72
2022/10/21 09:08:32;;;;;;;13.27;5.75;;;;;;;24.21;49.66;100709.19;5084819;28;20094;-73
2022/10/21 09:11:18;;;;;;;10.38;6.00;;;;;;;24.94;48.25;100703.25;5091555;27;20443;-72
2022/10/21 09:13:59;;;;;;;15.27;5.35;;;;;;;24.66;47.75;100699.88;5090876;28;20658;-73
2022/10/21 09:16:49;;;;;;;13.10;5.90;;;;;;;24.12;50.88;100706.31;5091778;28;20081;-72
2022/10/21 09:19:22;;;;;;;11.25;5.30;;;;;;;24.32;50.15;100712.94;5093810;28;20085;-72
2022/10/21 09:22:27;;;;;;;14.32;6.10;;;;;;;24.38;49.99;100720.53;5107833;27;20059;-72
2022/10/21 09:25:15;;;;;;;10.50;5.50;;;;;;;24.70;49.27;100712.06;5101451;27;20032;-72
2022/10/21 09:27:41;;;;;;;9.80;5.65;;;;;;;23.94;51.04;100725.28;5093752;28;20031;-73
2022/10/21 09:30:13;;;;;;;11.27;5.75;;;;;;;24.12;51.37;100728.50;5092789;28;20073;-72
2022/10/21 09:32:40;;;;;;;8.65;5.30;;;;;;;24.03;52.21;100726.50;5097097;28;20098;-73
2022/10/21 09:35:35;;;;;;;15.68;5.65;;;;;;;24.50;51.07;100716.97;5089794;28;20043;-73
2022/10/21 09:38:17;;;;;;;15.73;5.78;;;;;;;25.29;48.47;100697.13;5089108;28;20234;-73
2022/10/21 09:40:45;;;;;;;7.93;5.43;;;;;;;25.49;48.21;100699.19;5094780;28;20039;-72
2022/10/21 09:43:17;;;;;;;13.27;5.50;;;;;;;25.58;48.06;100694.97;5101953;28;20028;-73
2022/10/21 09:45:45;;;;;;;11.07;5.22;;;;;;;25.20;48.73;100704.88;5088252;28;20127;-72
2022/10/21 09:48:16;;;;;;;13.27;5.75;;;;;;;25.57;48.03;100695.97;5085000;28;20552;-73
2022/10/21 09:50:43;;;;;;;13.38;5.07;;;;;;;24.42;50.91;100708.66;5095646;28;20417;-73
2022/10/21 09:53:16;;;;;;;7.88;5.10;;;;;;;24.55;52.22;100696.16;5095521;27;20021;-72
2022/10/21 09:55:45;;;;;;;8.23;5.35;;;;;;;24.97;50.95;100687.00;5086750;28;20028;-72
2022/10/21 09:58:26;;;;;;;10.60;5.43;;;;;;;25.91;48.75;100696.91;5091499;28;20054;-73
2022/10/21 10:00:52;;;;;;;13.45;5.45;;;;;;;24.72;51.11;100694.13;5089977;28;20476;-72
2022/10/21 10:03:41;;;;;;;12.23;5.22;;;;;;;25.19;50.48;100697.81;5089687;28;20590;-72
2022/10/21 10:06:07;;;;;;;11.95;4.82;;;;;;;25.69;49.71;100694.16;5089018;28;20032;-72
2022/10/21 10:08:43;;;;;;;11.73;5.32;;;;;;;24.92;50.95;100697.16;5091646;28;20503;-73
2022/10/21 10:11:09;;;;;;;11.85;5.28;;;;;;;24.93;51.03;100697.03;5092532;28;20027;-73
2022/10/21 10:13:35;;;;;;;8.88;4.88;;;;;;;25.64;50.22;100691.00;5091377;28;20420;-72
2022/10/21 10:16:17;;;;;;;9.00;4.50;;;;;;;25.37;49.97;100689.41;5088330;28;20136;-72
2022/10/21 10:18:44;;;;;;;10.70;4.70;;;;;;;24.70;52.15;100685.34;5092391;28;20059;-73
2022/10/21 10:21:13;;;;;;;11.48;4.47;;;;;;;25.63;49.89;100695.47;5091393;28;20034;-73
2022/10/21 10:24:00;;;;;;;10.18;4.60;;;;;;;25.81;49.48;100693.22;5089869;28;20028;-72
2022/10/21 10:26:36;;;;;;;10.88;4.75;;;;;;;24.22;53.03;100702.91;5091713;28;20111;-72
2022/10/21 10:29:23;;;;;;;9.65;4.07;;;;;;;25.30;49.92;100693.50;5087963;28;20040;-72
2022/10/21 10:31:52;;;;;;;6.88;3.60;;;;;;;25.06;51.62;100689.00;5091990;28;20131;-72
2022/10/21 10:34:22;;;;;;;11.90;4.35;;;;;;;26.10;49.25;100700.84;5091550;28;20020;-71
2022/10/21 10:36:48;;;;;;;10.70;4.10;;;;;;;26.33;48.15;100693.69;5090531;28;20118;-72
2022/10/21 10:39:24;;;;;;;8.07;3.60;;;;;;;26.31;48.25;100700.16;5088277;28;20137;-72
2022/10/21 10:41:51;;;;;;;8.52;3.67;;;;;;;26.52;47.93;100714.53;5085706;28;20024;-72
2022/10/21 10:44:32;;;;;;;11.50;3.97;;;;;;;25.60;50.57;100705.56;5094818;28;20043;-72
2022/10/21 10:47:00;;;;;;;18.45;4.30;;;;;;;24.69;51.95;100718.41;5090489;28;20043;-72
2022/10/21 10:49:32;;;;;;;11.00;3.80;;;;;;;26.78;48.72;100713.44;5088414;28;20042;-72
2022/10/21 10:52:10;;;;;;;10.90;3.97;;;;;;;26.30;48.75;100715.38;5092011;28;20055;-73
2022/10/21 10:54:40;;;;;;;6.30;3.15;;;;;;;25.70;51.01;100717.28;5087799;28;20036;-72
2022/10/21 10:57:18;;;;;;;10.23;3.30;;;;;;;25.65;50.54;100719.44;5089784;28;20036;-72
2022/10/21 10:59:55;;;;;;;7.70;3.15;;;;;;;24.29;53.03;100723.81;5086635;28;20058;-72
2022/10/21 11:02:36;;;;;;;7.85;3.13;;;;;;;25.33;51.26;100717.38;5105975;27;20407;-72
2022/10/21 11:05:22;;;;;;;7.22;3.00;;;;;;;25.64;49.88;100713.25;5099951;27;20028;-72
2022/10/21 11:07:59;;;;;;;6.63;3.08;;;;;;;25.88;49.09;100710.53;5082657;28;20023;-72
2022/10/21 11:10:49;;;;;;;3.92;2.85;;;;;;;25.84;49.49;100713.53;5086084;28;20016;-72
2022/10/21 11:13:17;;;;;;;10.82;2.92;;;;;;;26.44;48.36;100706.25;5095313;28;20020;-72
2022/10/21 11:15:45;;;;;;;7.93;3.03;;;;;;;26.54;47.41;100701.88;5090644;28;20139;-72
2022/10/21 11:18:21;;;;;;;6.22;2.90;;;;;;;27.29;45.83;100695.94;5090679;28;20575;-72
2022/10/21 11:21:00;;;;;;;8.82;2.88;;;;;;;26.19;48.59;100697.47;5087991;28;20051;-72
2022/10/21 11:23:31;;;;;;;5.53;2.97;;;;;;;27.52;45.00;100702.94;5085099;28;20017;-72
2022/10/21 11:26:13;;;;;;;4.47;2.50;;;;;;;27.08;45.32;100688.66;5092717;28;20031;-72
2022/10/21 11:28:51;;;;;;;6.32;2.95;;;;;;;26.61;46.30;100696.00;5100752;27;20077;-72